Terminal Aerodrome Forecast
Issued by NWS Jacksonville, FL

Home | Current Version | Previous Version | Text Only | Print | Product List | Glossary On
Versions: 1 2 3 4 5 6 7 8 9 10 11 12 13 14 15
824
FTUS42 KJAX 241723
TAFSSI
TAF
KSSI 241723Z 2418/2518 22005KT P6SM SCT250
     FM241900 15011KT P6SM SCT040
     FM250000 18007KT P6SM FEW040=

USA.gov is the U.S. government's official web portal to all federal, state and local government web resources and services.